sensor_id;sensor_type;location;lat;lon;timestamp;P1;durP1;ratioP1;P2;durP2;ratioP2
10088;SDS011;51898;49.864;8.550;2024-01-30T00:02:57;32.33;;;19.23;;
10088;SDS011;51898;49.864;8.550;2024-01-30T00:05:59;35.60;;;18.90;;
10088;SDS011;51898;49.864;8.550;2024-01-30T00:09:00;36.33;;;20.47;;
10088;SDS011;51898;49.864;8.550;2024-01-30T00:12:02;50.90;;;22.90;;
10088;SDS011;51898;49.864;8.550;2024-01-30T00:15:04;53.27;;;22.57;;
10088;SDS011;51898;49.864;8.550;2024-01-30T00:18:09;41.30;;;22.20;;
10088;SDS011;51898;49.864;8.550;2024-01-30T00:21:11;48.80;;;24.10;;
10088;SDS011;51898;49.864;8.550;2024-01-30T00:24:12;44.10;;;20.90;;
10088;SDS011;51898;49.864;8.550;2024-01-30T00:27:14;39.23;;;20.53;;
10088;SDS011;51898;49.864;8.550;2024-01-30T00:30:15;39.43;;;21.17;;
10088;SDS011;51898;49.864;8.550;2024-01-30T00:33:17;40.80;;;20.40;;
10088;SDS011;51898;49.864;8.550;2024-01-30T00:36:19;34.53;;;19.87;;
10088;SDS011;51898;49.864;8.550;2024-01-30T00:39:21;48.30;;;23.80;;
10088;SDS011;51898;49.864;8.550;2024-01-30T00:42:22;38.53;;;20.90;;
10088;SDS011;51898;49.864;8.550;2024-01-30T00:45:25;43.13;;;21.60;;
10088;SDS011;51898;49.864;8.550;2024-01-30T00:48:26;34.47;;;18.20;;
10088;SDS011;51898;49.864;8.550;2024-01-30T00:51:28;32.07;;;18.70;;
10088;SDS011;51898;49.864;8.550;2024-01-30T00:54:30;43.23;;;22.50;;
10088;SDS011;51898;49.864;8.550;2024-01-30T00:57:32;37.07;;;18.80;;
10088;SDS011;51898;49.864;8.550;2024-01-30T01:00:34;44.47;;;20.40;;
10088;SDS011;51898;49.864;8.550;2024-01-30T01:03:36;41.37;;;18.93;;
10088;SDS011;51898;49.864;8.550;2024-01-30T01:06:37;45.03;;;22.03;;
10088;SDS011;51898;49.864;8.550;2024-01-30T01:09:39;44.70;;;22.60;;
10088;SDS011;51898;49.864;8.550;2024-01-30T01:12:41;47.87;;;22.70;;
10088;SDS011;51898;49.864;8.550;2024-01-30T01:15:43;54.30;;;22.63;;
10088;SDS011;51898;49.864;8.550;2024-01-30T01:18:45;44.80;;;21.33;;
10088;SDS011;51898;49.864;8.550;2024-01-30T01:21:46;38.53;;;22.10;;
10088;SDS011;51898;49.864;8.550;2024-01-30T01:24:48;45.57;;;20.93;;
10088;SDS011;51898;49.864;8.550;2024-01-30T01:27:50;41.87;;;21.97;;
10088;SDS011;51898;49.864;8.550;2024-01-30T01:30:54;36.73;;;22.43;;
10088;SDS011;51898;49.864;8.550;2024-01-30T01:34:00;35.90;;;21.30;;
10088;SDS011;51898;49.864;8.550;2024-01-30T01:37:02;41.67;;;21.50;;
10088;SDS011;51898;49.864;8.550;2024-01-30T01:40:04;36.80;;;21.77;;
10088;SDS011;51898;49.864;8.550;2024-01-30T01:43:07;28.67;;;18.47;;
10088;SDS011;51898;49.864;8.550;2024-01-30T01:46:09;39.30;;;19.90;;
10088;SDS011;51898;49.864;8.550;2024-01-30T01:49:11;33.73;;;18.93;;
10088;SDS011;51898;49.864;8.550;2024-01-30T01:52:13;35.27;;;20.17;;
10088;SDS011;51898;49.864;8.550;2024-01-30T01:55:15;30.17;;;19.70;;
10088;SDS011;51898;49.864;8.550;2024-01-30T01:58:19;32.67;;;19.40;;
10088;SDS011;51898;49.864;8.550;2024-01-30T02:01:22;31.83;;;17.70;;
10088;SDS011;51898;49.864;8.550;2024-01-30T02:04:26;31.83;;;18.13;;
10088;SDS011;51898;49.864;8.550;2024-01-30T02:07:28;35.67;;;20.83;;
10088;SDS011;51898;49.864;8.550;2024-01-30T02:10:30;35.93;;;20.80;;
10088;SDS011;51898;49.864;8.550;2024-01-30T02:13:31;30.23;;;19.10;;
10088;SDS011;51898;49.864;8.550;2024-01-30T02:16:33;33.93;;;19.77;;
10088;SDS011;51898;49.864;8.550;2024-01-30T02:19:35;34.63;;;18.40;;
10088;SDS011;51898;49.864;8.550;2024-01-30T02:22:37;42.67;;;19.70;;
10088;SDS011;51898;49.864;8.550;2024-01-30T02:25:39;31.50;;;19.00;;
10088;SDS011;51898;49.864;8.550;2024-01-30T02:28:45;35.20;;;19.20;;
10088;SDS011;51898;49.864;8.550;2024-01-30T02:31:47;29.50;;;18.43;;
10088;SDS011;51898;49.864;8.550;2024-01-30T02:34:48;36.40;;;18.07;;
10088;SDS011;51898;49.864;8.550;2024-01-30T02:37:50;34.50;;;20.00;;
10088;SDS011;51898;49.864;8.550;2024-01-30T02:40:52;32.60;;;17.90;;
10088;SDS011;51898;49.864;8.550;2024-01-30T02:43:54;27.93;;;17.53;;
10088;SDS011;51898;49.864;8.550;2024-01-30T02:46:55;37.77;;;18.47;;
10088;SDS011;51898;49.864;8.550;2024-01-30T02:49:57;29.20;;;18.27;;
10088;SDS011;51898;49.864;8.550;2024-01-30T02:52:59;32.47;;;19.47;;
10088;SDS011;51898;49.864;8.550;2024-01-30T02:56:02;28.73;;;17.17;;
10088;SDS011;51898;49.864;8.550;2024-01-30T02:59:04;34.17;;;17.70;;
10088;SDS011;51898;49.864;8.550;2024-01-30T03:02:05;32.17;;;16.67;;
10088;SDS011;51898;49.864;8.550;2024-01-30T03:05:07;27.20;;;17.73;;
10088;SDS011;51898;49.864;8.550;2024-01-30T03:08:09;26.77;;;16.30;;
10088;SDS011;51898;49.864;8.550;2024-01-30T03:11:11;22.30;;;15.73;;
10088;SDS011;51898;49.864;8.550;2024-01-30T03:14:13;22.10;;;14.17;;
10088;SDS011;51898;49.864;8.550;2024-01-30T03:17:14;27.83;;;15.50;;
10088;SDS011;51898;49.864;8.550;2024-01-30T03:20:16;23.87;;;15.47;;
10088;SDS011;51898;49.864;8.550;2024-01-30T03:23:18;29.63;;;16.40;;
10088;SDS011;51898;49.864;8.550;2024-01-30T03:26:19;23.13;;;15.43;;
10088;SDS011;51898;49.864;8.550;2024-01-30T03:29:21;29.23;;;17.00;;
10088;SDS011;51898;49.864;8.550;2024-01-30T03:32:23;24.30;;;14.77;;
10088;SDS011;51898;49.864;8.550;2024-01-30T03:35:24;24.50;;;14.20;;
10088;SDS011;51898;49.864;8.550;2024-01-30T03:38:26;25.63;;;15.77;;
10088;SDS011;51898;49.864;8.550;2024-01-30T03:41:28;22.50;;;15.10;;
10088;SDS011;51898;49.864;8.550;2024-01-30T03:44:30;24.17;;;14.87;;
10088;SDS011;51898;49.864;8.550;2024-01-30T03:47:31;34.37;;;17.60;;
10088;SDS011;51898;49.864;8.550;2024-01-30T03:50:33;24.27;;;16.23;;
10088;SDS011;51898;49.864;8.550;2024-01-30T03:53:35;21.60;;;14.83;;
10088;SDS011;51898;49.864;8.550;2024-01-30T03:56:36;28.87;;;15.40;;
10088;SDS011;51898;49.864;8.550;2024-01-30T03:59:38;35.93;;;15.80;;
10088;SDS011;51898;49.864;8.550;2024-01-30T04:02:43;23.37;;;15.10;;
10088;SDS011;51898;49.864;8.550;2024-01-30T04:05:46;29.63;;;15.20;;
10088;SDS011;51898;49.864;8.550;2024-01-30T04:08:48;26.03;;;16.20;;
10088;SDS011;51898;49.864;8.550;2024-01-30T04:11:49;19.77;;;14.17;;
10088;SDS011;51898;49.864;8.550;2024-01-30T04:14:51;22.57;;;13.77;;
10088;SDS011;51898;49.864;8.550;2024-01-30T04:17:53;23.30;;;13.60;;
10088;SDS011;51898;49.864;8.550;2024-01-30T04:20:54;30.87;;;16.00;;
10088;SDS011;51898;49.864;8.550;2024-01-30T04:23:56;34.03;;;16.43;;
10088;SDS011;51898;49.864;8.550;2024-01-30T04:26:59;175.13;;;24.23;;
10088;SDS011;51898;49.864;8.550;2024-01-30T04:30:00;30.43;;;16.30;;
10088;SDS011;51898;49.864;8.550;2024-01-30T04:33:02;134.03;;;22.77;;
10088;SDS011;51898;49.864;8.550;2024-01-30T04:36:04;139.87;;;23.30;;
10088;SDS011;51898;49.864;8.550;2024-01-30T04:39:10;78.90;;;21.40;;
10088;SDS011;51898;49.864;8.550;2024-01-30T04:42:11;81.03;;;23.50;;
10088;SDS011;51898;49.864;8.550;2024-01-30T04:45:13;52.97;;;21.43;;
10088;SDS011;51898;49.864;8.550;2024-01-30T04:48:15;65.13;;;22.03;;
10088;SDS011;51898;49.864;8.550;2024-01-30T04:51:17;56.63;;;20.53;;
10088;SDS011;51898;49.864;8.550;2024-01-30T04:54:18;45.27;;;21.40;;
10088;SDS011;51898;49.864;8.550;2024-01-30T04:57:20;39.90;;;19.70;;
10088;SDS011;51898;49.864;8.550;2024-01-30T05:00:22;49.60;;;21.00;;
10088;SDS011;51898;49.864;8.550;2024-01-30T05:03:23;39.70;;;20.60;;
10088;SDS011;51898;49.864;8.550;2024-01-30T05:06:28;44.60;;;21.70;;
10088;SDS011;51898;49.864;8.550;2024-01-30T05:09:31;39.97;;;20.60;;
10088;SDS011;51898;49.864;8.550;2024-01-30T05:12:32;37.93;;;20.27;;
10088;SDS011;51898;49.864;8.550;2024-01-30T05:15:34;39.93;;;21.10;;
10088;SDS011;51898;49.864;8.550;2024-01-30T05:18:36;49.90;;;22.13;;
10088;SDS011;51898;49.864;8.550;2024-01-30T05:21:37;47.00;;;23.97;;
10088;SDS011;51898;49.864;8.550;2024-01-30T05:24:39;44.07;;;23.13;;
10088;SDS011;51898;49.864;8.550;2024-01-30T05:27:41;53.10;;;24.93;;
10088;SDS011;51898;49.864;8.550;2024-01-30T05:30:42;39.93;;;23.60;;
10088;SDS011;51898;49.864;8.550;2024-01-30T05:33:44;52.77;;;24.20;;
10088;SDS011;51898;49.864;8.550;2024-01-30T05:36:46;41.37;;;22.20;;
10088;SDS011;51898;49.864;8.550;2024-01-30T05:39:48;49.77;;;25.00;;
10088;SDS011;51898;49.864;8.550;2024-01-30T05:42:50;47.80;;;23.97;;
10088;SDS011;51898;49.864;8.550;2024-01-30T05:45:51;43.27;;;21.57;;
10088;SDS011;51898;49.864;8.550;2024-01-30T05:48:53;55.07;;;25.80;;
10088;SDS011;51898;49.864;8.550;2024-01-30T05:51:55;105.80;;;28.97;;
10088;SDS011;51898;49.864;8.550;2024-01-30T05:54:57;54.07;;;25.67;;
10088;SDS011;51898;49.864;8.550;2024-01-30T05:57:59;51.23;;;25.10;;
10088;SDS011;51898;49.864;8.550;2024-01-30T06:01:01;49.77;;;25.50;;
10088;SDS011;51898;49.864;8.550;2024-01-30T06:04:02;182.97;;;85.23;;
10088;SDS011;51898;49.864;8.550;2024-01-30T06:07:04;67.97;;;32.77;;
10088;SDS011;51898;49.864;8.550;2024-01-30T06:10:07;48.17;;;25.20;;
10088;SDS011;51898;49.864;8.550;2024-01-30T06:13:10;44.10;;;22.77;;
10088;SDS011;51898;49.864;8.550;2024-01-30T06:16:11;40.40;;;24.20;;
10088;SDS011;51898;49.864;8.550;2024-01-30T06:19:13;47.90;;;25.60;;
10088;SDS011;51898;49.864;8.550;2024-01-30T06:22:15;38.70;;;22.50;;
10088;SDS011;51898;49.864;8.550;2024-01-30T06:25:17;39.67;;;22.10;;
10088;SDS011;51898;49.864;8.550;2024-01-30T06:28:19;37.50;;;21.53;;
10088;SDS011;51898;49.864;8.550;2024-01-30T06:31:20;41.57;;;21.90;;
10088;SDS011;51898;49.864;8.550;2024-01-30T06:34:22;43.33;;;23.17;;
10088;SDS011;51898;49.864;8.550;2024-01-30T06:37:24;39.57;;;22.47;;
10088;SDS011;51898;49.864;8.550;2024-01-30T06:40:26;43.43;;;23.33;;
10088;SDS011;51898;49.864;8.550;2024-01-30T06:43:28;48.67;;;22.67;;
10088;SDS011;51898;49.864;8.550;2024-01-30T06:46:30;36.67;;;22.00;;
10088;SDS011;51898;49.864;8.550;2024-01-30T06:49:31;42.07;;;22.60;;
10088;SDS011;51898;49.864;8.550;2024-01-30T06:52:33;42.00;;;24.27;;
10088;SDS011;51898;49.864;8.550;2024-01-30T06:55:35;39.63;;;22.20;;
10088;SDS011;51898;49.864;8.550;2024-01-30T06:58:37;46.07;;;22.90;;
10088;SDS011;51898;49.864;8.550;2024-01-30T07:01:39;44.50;;;25.97;;
10088;SDS011;51898;49.864;8.550;2024-01-30T07:04:40;45.30;;;23.23;;
10088;SDS011;51898;49.864;8.550;2024-01-30T07:07:47;37.77;;;21.40;;
10088;SDS011;51898;49.864;8.550;2024-01-30T07:10:49;38.93;;;20.33;;
10088;SDS011;51898;49.864;8.550;2024-01-30T07:13:51;34.03;;;20.10;;
10088;SDS011;51898;49.864;8.550;2024-01-30T07:16:52;30.40;;;20.90;;
10088;SDS011;51898;49.864;8.550;2024-01-30T07:19:54;35.00;;;21.57;;
10088;SDS011;51898;49.864;8.550;2024-01-30T07:22:56;33.23;;;21.40;;
10088;SDS011;51898;49.864;8.550;2024-01-30T07:25:57;33.10;;;20.00;;
10088;SDS011;51898;49.864;8.550;2024-01-30T07:29:20;37.23;;;23.63;;
10088;SDS011;51898;49.864;8.550;2024-01-30T07:32:42;38.63;;;21.77;;
10088;SDS011;51898;49.864;8.550;2024-01-30T07:35:48;36.60;;;21.80;;
10088;SDS011;51898;49.864;8.550;2024-01-30T07:38:50;32.90;;;22.83;;
10088;SDS011;51898;49.864;8.550;2024-01-30T07:41:52;39.63;;;22.97;;
10088;SDS011;51898;49.864;8.550;2024-01-30T07:44:53;42.43;;;26.20;;
10088;SDS011;51898;49.864;8.550;2024-01-30T07:47:55;36.60;;;22.27;;
10088;SDS011;51898;49.864;8.550;2024-01-30T07:50:57;36.20;;;20.70;;
10088;SDS011;51898;49.864;8.550;2024-01-30T07:53:58;39.83;;;21.43;;
10088;SDS011;51898;49.864;8.550;2024-01-30T07:57:00;40.53;;;21.30;;
10088;SDS011;51898;49.864;8.550;2024-01-30T08:00:02;42.70;;;23.37;;
10088;SDS011;51898;49.864;8.550;2024-01-30T08:03:04;41.03;;;22.47;;
10088;SDS011;51898;49.864;8.550;2024-01-30T08:06:06;39.43;;;22.80;;
10088;SDS011;51898;49.864;8.550;2024-01-30T08:09:08;38.00;;;23.07;;
10088;SDS011;51898;49.864;8.550;2024-01-30T08:12:10;35.33;;;21.83;;
10088;SDS011;51898;49.864;8.550;2024-01-30T08:15:12;36.90;;;22.50;;
10088;SDS011;51898;49.864;8.550;2024-01-30T08:18:14;32.33;;;21.50;;
10088;SDS011;51898;49.864;8.550;2024-01-30T08:21:17;41.77;;;23.27;;
10088;SDS011;51898;49.864;8.550;2024-01-30T08:24:18;42.73;;;23.80;;
10088;SDS011;51898;49.864;8.550;2024-01-30T08:27:20;45.43;;;23.90;;
10088;SDS011;51898;49.864;8.550;2024-01-30T08:30:22;37.97;;;22.00;;
10088;SDS011;51898;49.864;8.550;2024-01-30T08:33:23;37.20;;;22.10;;
10088;SDS011;51898;49.864;8.550;2024-01-30T08:36:25;33.10;;;20.57;;
10088;SDS011;51898;49.864;8.550;2024-01-30T08:39:27;39.20;;;21.80;;
10088;SDS011;51898;49.864;8.550;2024-01-30T08:42:28;34.00;;;20.77;;
10088;SDS011;51898;49.864;8.550;2024-01-30T08:45:30;33.37;;;20.90;;
10088;SDS011;51898;49.864;8.550;2024-01-30T08:48:32;32.77;;;21.07;;
10088;SDS011;51898;49.864;8.550;2024-01-30T08:51:34;28.13;;;20.30;;
10088;SDS011;51898;49.864;8.550;2024-01-30T08:54:35;31.90;;;20.73;;
10088;SDS011;51898;49.864;8.550;2024-01-30T08:57:37;27.60;;;18.97;;
10088;SDS011;51898;49.864;8.550;2024-01-30T09:00:39;29.40;;;20.13;;
10088;SDS011;51898;49.864;8.550;2024-01-30T09:03:41;30.03;;;19.47;;
10088;SDS011;51898;49.864;8.550;2024-01-30T09:06:44;30.10;;;20.20;;
10088;SDS011;51898;49.864;8.550;2024-01-30T09:09:46;34.10;;;20.83;;
10088;SDS011;51898;49.864;8.550;2024-01-30T09:12:48;28.67;;;18.50;;
10088;SDS011;51898;49.864;8.550;2024-01-30T09:15:50;28.10;;;20.00;;
10088;SDS011;51898;49.864;8.550;2024-01-30T09:18:53;28.93;;;19.70;;
10088;SDS011;51898;49.864;8.550;2024-01-30T09:21:55;25.40;;;19.63;;
10088;SDS011;51898;49.864;8.550;2024-01-30T09:24:57;29.43;;;20.90;;
10088;SDS011;51898;49.864;8.550;2024-01-30T09:27:59;33.30;;;20.80;;
10088;SDS011;51898;49.864;8.550;2024-01-30T09:31:00;26.77;;;17.97;;
10088;SDS011;51898;49.864;8.550;2024-01-30T09:34:02;30.30;;;19.37;;
10088;SDS011;51898;49.864;8.550;2024-01-30T09:37:04;28.53;;;19.03;;
10088;SDS011;51898;49.864;8.550;2024-01-30T09:40:06;32.20;;;19.10;;
10088;SDS011;51898;49.864;8.550;2024-01-30T09:43:09;30.00;;;20.37;;
10088;SDS011;51898;49.864;8.550;2024-01-30T09:46:18;27.70;;;19.47;;
10088;SDS011;51898;49.864;8.550;2024-01-30T09:49:23;25.03;;;19.30;;
10088;SDS011;51898;49.864;8.550;2024-01-30T09:52:25;23.33;;;18.37;;
10088;SDS011;51898;49.864;8.550;2024-01-30T09:55:27;30.27;;;19.83;;
10088;SDS011;51898;49.864;8.550;2024-01-30T09:58:29;24.10;;;20.00;;
10088;SDS011;51898;49.864;8.550;2024-01-30T10:01:31;26.07;;;18.70;;
10088;SDS011;51898;49.864;8.550;2024-01-30T10:04:35;26.70;;;18.60;;
10088;SDS011;51898;49.864;8.550;2024-01-30T10:07:37;30.03;;;19.07;;
10088;SDS011;51898;49.864;8.550;2024-01-30T10:10:39;24.27;;;18.20;;
10088;SDS011;51898;49.864;8.550;2024-01-30T10:13:40;29.80;;;21.47;;
10088;SDS011;51898;49.864;8.550;2024-01-30T10:16:42;31.03;;;20.57;;
10088;SDS011;51898;49.864;8.550;2024-01-30T10:19:46;29.37;;;18.33;;
10088;SDS011;51898;49.864;8.550;2024-01-30T10:22:49;29.10;;;19.20;;
10088;SDS011;51898;49.864;8.550;2024-01-30T10:25:51;29.57;;;18.67;;
10088;SDS011;51898;49.864;8.550;2024-01-30T10:28:53;25.03;;;17.77;;
10088;SDS011;51898;49.864;8.550;2024-01-30T10:32:01;29.27;;;19.47;;
10088;SDS011;51898;49.864;8.550;2024-01-30T10:35:04;31.10;;;20.03;;
10088;SDS011;51898;49.864;8.550;2024-01-30T10:38:06;27.40;;;19.67;;
10088;SDS011;51898;49.864;8.550;2024-01-30T10:41:12;28.30;;;19.07;;
10088;SDS011;51898;49.864;8.550;2024-01-30T10:44:18;25.37;;;18.77;;
10088;SDS011;51898;49.864;8.550;2024-01-30T10:47:27;28.77;;;19.87;;
10088;SDS011;51898;49.864;8.550;2024-01-30T10:50:30;25.83;;;19.50;;
10088;SDS011;51898;49.864;8.550;2024-01-30T10:53:34;28.07;;;20.40;;
10088;SDS011;51898;49.864;8.550;2024-01-30T10:56:36;32.70;;;21.57;;
10088;SDS011;51898;49.864;8.550;2024-01-30T10:59:39;29.77;;;20.77;;
10088;SDS011;51898;49.864;8.550;2024-01-30T11:02:45;29.80;;;19.40;;
10088;SDS011;51898;49.864;8.550;2024-01-30T11:05:51;27.53;;;19.30;;
10088;SDS011;51898;49.864;8.550;2024-01-30T11:09:05;28.40;;;19.43;;
10088;SDS011;51898;49.864;8.550;2024-01-30T11:12:13;25.40;;;18.83;;
10088;SDS011;51898;49.864;8.550;2024-01-30T11:15:15;26.00;;;18.83;;
10088;SDS011;51898;49.864;8.550;2024-01-30T11:18:24;28.70;;;19.77;;
10088;SDS011;51898;49.864;8.550;2024-01-30T11:21:26;25.10;;;18.17;;
10088;SDS011;51898;49.864;8.550;2024-01-30T11:24:28;23.80;;;17.83;;
10088;SDS011;51898;49.864;8.550;2024-01-30T11:27:30;22.53;;;17.57;;
10088;SDS011;51898;49.864;8.550;2024-01-30T11:30:33;22.63;;;18.37;;
10088;SDS011;51898;49.864;8.550;2024-01-30T11:33:35;20.33;;;17.03;;
10088;SDS011;51898;49.864;8.550;2024-01-30T11:36:37;26.43;;;19.00;;
10088;SDS011;51898;49.864;8.550;2024-01-30T11:39:43;29.60;;;18.53;;
10088;SDS011;51898;49.864;8.550;2024-01-30T11:42:45;23.73;;;17.87;;
10088;SDS011;51898;49.864;8.550;2024-01-30T11:45:50;24.13;;;18.00;;
10088;SDS011;51898;49.864;8.550;2024-01-30T11:48:52;22.50;;;16.17;;
10088;SDS011;51898;49.864;8.550;2024-01-30T11:51:54;24.00;;;17.30;;
10088;SDS011;51898;49.864;8.550;2024-01-30T11:54:56;21.93;;;15.53;;
10088;SDS011;51898;49.864;8.550;2024-01-30T11:57:58;20.00;;;16.00;;
10088;SDS011;51898;49.864;8.550;2024-01-30T12:01:00;22.53;;;16.70;;
10088;SDS011;51898;49.864;8.550;2024-01-30T12:04:02;23.50;;;16.50;;
10088;SDS011;51898;49.864;8.550;2024-01-30T12:07:04;21.33;;;15.20;;
10088;SDS011;51898;49.864;8.550;2024-01-30T12:10:08;17.53;;;14.77;;
10088;SDS011;51898;49.864;8.550;2024-01-30T12:13:10;23.37;;;16.37;;
10088;SDS011;51898;49.864;8.550;2024-01-30T12:16:12;20.30;;;14.50;;
10088;SDS011;51898;49.864;8.550;2024-01-30T12:19:24;20.00;;;13.33;;
10088;SDS011;51898;49.864;8.550;2024-01-30T12:22:26;18.57;;;13.47;;
10088;SDS011;51898;49.864;8.550;2024-01-30T12:25:28;17.90;;;13.90;;
10088;SDS011;51898;49.864;8.550;2024-01-30T12:28:30;16.40;;;14.00;;
10088;SDS011;51898;49.864;8.550;2024-01-30T12:31:32;29.43;;;14.10;;
10088;SDS011;51898;49.864;8.550;2024-01-30T12:34:39;22.33;;;14.50;;
10088;SDS011;51898;49.864;8.550;2024-01-30T12:37:57;19.10;;;13.70;;
10088;SDS011;51898;49.864;8.550;2024-01-30T12:40:59;18.00;;;13.23;;
10088;SDS011;51898;49.864;8.550;2024-01-30T12:44:01;18.33;;;14.30;;
10088;SDS011;51898;49.864;8.550;2024-01-30T12:47:03;18.07;;;13.63;;
10088;SDS011;51898;49.864;8.550;2024-01-30T12:50:05;18.67;;;14.17;;
10088;SDS011;51898;49.864;8.550;2024-01-30T12:53:07;17.00;;;13.63;;
10088;SDS011;51898;49.864;8.550;2024-01-30T12:56:10;20.40;;;13.80;;
10088;SDS011;51898;49.864;8.550;2024-01-30T12:59:11;17.90;;;13.67;;
10088;SDS011;51898;49.864;8.550;2024-01-30T13:02:13;17.60;;;14.33;;
10088;SDS011;51898;49.864;8.550;2024-01-30T13:05:16;17.80;;;14.20;;
10088;SDS011;51898;49.864;8.550;2024-01-30T13:08:18;19.20;;;14.80;;
10088;SDS011;51898;49.864;8.550;2024-01-30T13:11:20;21.97;;;14.53;;
10088;SDS011;51898;49.864;8.550;2024-01-30T13:14:22;21.40;;;14.37;;
10088;SDS011;51898;49.864;8.550;2024-01-30T13:17:24;18.73;;;13.53;;
10088;SDS011;51898;49.864;8.550;2024-01-30T13:20:25;17.67;;;13.40;;
10088;SDS011;51898;49.864;8.550;2024-01-30T13:23:27;15.93;;;12.07;;
10088;SDS011;51898;49.864;8.550;2024-01-30T13:26:29;16.30;;;11.90;;
10088;SDS011;51898;49.864;8.550;2024-01-30T13:29:32;25.00;;;12.30;;
10088;SDS011;51898;49.864;8.550;2024-01-30T13:32:34;13.93;;;10.83;;
10088;SDS011;51898;49.864;8.550;2024-01-30T13:35:36;17.60;;;11.70;;
10088;SDS011;51898;49.864;8.550;2024-01-30T13:38:37;13.87;;;11.17;;
10088;SDS011;51898;49.864;8.550;2024-01-30T13:41:41;16.10;;;11.10;;
10088;SDS011;51898;49.864;8.550;2024-01-30T13:44:43;16.20;;;11.30;;
10088;SDS011;51898;49.864;8.550;2024-01-30T13:47:45;13.87;;;10.80;;
10088;SDS011;51898;49.864;8.550;2024-01-30T13:50:47;13.47;;;11.27;;
10088;SDS011;51898;49.864;8.550;2024-01-30T13:53:49;15.73;;;10.30;;
10088;SDS011;51898;49.864;8.550;2024-01-30T13:56:51;19.27;;;11.27;;
10088;SDS011;51898;49.864;8.550;2024-01-30T13:59:53;13.83;;;11.00;;
10088;SDS011;51898;49.864;8.550;2024-01-30T14:02:55;14.47;;;10.57;;
10088;SDS011;51898;49.864;8.550;2024-01-30T14:05:57;16.83;;;11.83;;
10088;SDS011;51898;49.864;8.550;2024-01-30T14:08:59;18.57;;;12.10;;
10088;SDS011;51898;49.864;8.550;2024-01-30T14:12:08;15.57;;;11.80;;
10088;SDS011;51898;49.864;8.550;2024-01-30T14:15:10;15.70;;;12.63;;
10088;SDS011;51898;49.864;8.550;2024-01-30T14:18:27;16.10;;;10.97;;
10088;SDS011;51898;49.864;8.550;2024-01-30T14:21:29;17.17;;;11.87;;
10088;SDS011;51898;49.864;8.550;2024-01-30T14:24:31;16.50;;;11.80;;
10088;SDS011;51898;49.864;8.550;2024-01-30T14:27:32;18.23;;;11.23;;
10088;SDS011;51898;49.864;8.550;2024-01-30T14:30:34;17.60;;;11.93;;
10088;SDS011;51898;49.864;8.550;2024-01-30T14:33:36;17.37;;;11.67;;
10088;SDS011;51898;49.864;8.550;2024-01-30T14:36:41;16.90;;;11.47;;
10088;SDS011;51898;49.864;8.550;2024-01-30T14:39:42;14.50;;;11.90;;
10088;SDS011;51898;49.864;8.550;2024-01-30T14:42:44;13.00;;;10.67;;
10088;SDS011;51898;49.864;8.550;2024-01-30T14:45:46;18.23;;;10.90;;
10088;SDS011;51898;49.864;8.550;2024-01-30T14:48:50;16.27;;;11.97;;
10088;SDS011;51898;49.864;8.550;2024-01-30T14:51:53;17.47;;;11.50;;
10088;SDS011;51898;49.864;8.550;2024-01-30T14:54:55;13.63;;;10.70;;
10088;SDS011;51898;49.864;8.550;2024-01-30T14:57:56;16.60;;;11.60;;
10088;SDS011;51898;49.864;8.550;2024-01-30T15:01:00;15.30;;;11.70;;
10088;SDS011;51898;49.864;8.550;2024-01-30T15:04:02;13.67;;;10.70;;
10088;SDS011;51898;49.864;8.550;2024-01-30T15:07:04;16.13;;;11.43;;
10088;SDS011;51898;49.864;8.550;2024-01-30T15:10:06;17.27;;;11.07;;
10088;SDS011;51898;49.864;8.550;2024-01-30T15:13:09;15.50;;;10.93;;
10088;SDS011;51898;49.864;8.550;2024-01-30T15:16:12;16.17;;;10.67;;
10088;SDS011;51898;49.864;8.550;2024-01-30T15:19:14;16.40;;;11.60;;
10088;SDS011;51898;49.864;8.550;2024-01-30T15:22:16;15.50;;;10.67;;
10088;SDS011;51898;49.864;8.550;2024-01-30T15:25:17;15.20;;;11.03;;
10088;SDS011;51898;49.864;8.550;2024-01-30T15:28:22;18.33;;;11.20;;
10088;SDS011;51898;49.864;8.550;2024-01-30T15:31:35;16.50;;;11.77;;
10088;SDS011;51898;49.864;8.550;2024-01-30T15:34:37;14.73;;;11.80;;
10088;SDS011;51898;49.864;8.550;2024-01-30T15:37:38;14.73;;;10.87;;
10088;SDS011;51898;49.864;8.550;2024-01-30T15:40:40;14.37;;;10.13;;
10088;SDS011;51898;49.864;8.550;2024-01-30T15:43:42;13.60;;;10.63;;
10088;SDS011;51898;49.864;8.550;2024-01-30T15:46:44;15.63;;;10.83;;
10088;SDS011;51898;49.864;8.550;2024-01-30T15:49:45;14.60;;;9.70;;
10088;SDS011;51898;49.864;8.550;2024-01-30T15:52:47;13.47;;;10.63;;
10088;SDS011;51898;49.864;8.550;2024-01-30T15:55:49;17.23;;;11.70;;
10088;SDS011;51898;49.864;8.550;2024-01-30T15:58:50;17.90;;;12.10;;
10088;SDS011;51898;49.864;8.550;2024-01-30T16:01:53;18.73;;;12.27;;
10088;SDS011;51898;49.864;8.550;2024-01-30T16:04:55;14.80;;;10.53;;
10088;SDS011;51898;49.864;8.550;2024-01-30T16:07:57;17.10;;;11.30;;
10088;SDS011;51898;49.864;8.550;2024-01-30T16:10:59;16.13;;;10.67;;
10088;SDS011;51898;49.864;8.550;2024-01-30T16:14:01;16.00;;;11.33;;
10088;SDS011;51898;49.864;8.550;2024-01-30T16:17:03;18.20;;;12.07;;
10088;SDS011;51898;49.864;8.550;2024-01-30T16:20:05;15.50;;;11.30;;
10088;SDS011;51898;49.864;8.550;2024-01-30T16:23:07;14.93;;;11.03;;
10088;SDS011;51898;49.864;8.550;2024-01-30T16:26:09;17.70;;;10.87;;
10088;SDS011;51898;49.864;8.550;2024-01-30T16:29:11;16.10;;;11.13;;
10088;SDS011;51898;49.864;8.550;2024-01-30T16:32:12;16.93;;;11.80;;
10088;SDS011;51898;49.864;8.550;2024-01-30T16:35:14;14.53;;;11.20;;
10088;SDS011;51898;49.864;8.550;2024-01-30T16:38:16;16.37;;;11.47;;
10088;SDS011;51898;49.864;8.550;2024-01-30T16:41:18;16.73;;;11.20;;
10088;SDS011;51898;49.864;8.550;2024-01-30T16:44:20;15.07;;;10.60;;
10088;SDS011;51898;49.864;8.550;2024-01-30T16:47:21;16.23;;;11.20;;
10088;SDS011;51898;49.864;8.550;2024-01-30T16:50:23;19.93;;;11.33;;
10088;SDS011;51898;49.864;8.550;2024-01-30T16:53:25;16.13;;;11.20;;
10088;SDS011;51898;49.864;8.550;2024-01-30T16:56:26;16.73;;;10.20;;
10088;SDS011;51898;49.864;8.550;2024-01-30T16:59:28;13.43;;;10.20;;
10088;SDS011;51898;49.864;8.550;2024-01-30T17:02:30;14.67;;;9.97;;
10088;SDS011;51898;49.864;8.550;2024-01-30T17:05:31;14.50;;;10.83;;
10088;SDS011;51898;49.864;8.550;2024-01-30T17:08:33;20.03;;;11.50;;
10088;SDS011;51898;49.864;8.550;2024-01-30T17:11:35;18.20;;;13.33;;
10088;SDS011;51898;49.864;8.550;2024-01-30T17:14:36;20.23;;;12.97;;
10088;SDS011;51898;49.864;8.550;2024-01-30T17:17:40;19.07;;;12.20;;
10088;SDS011;51898;49.864;8.550;2024-01-30T17:20:42;13.40;;;10.87;;
10088;SDS011;51898;49.864;8.550;2024-01-30T17:23:44;14.10;;;10.70;;
10088;SDS011;51898;49.864;8.550;2024-01-30T17:26:45;16.27;;;11.10;;
10088;SDS011;51898;49.864;8.550;2024-01-30T17:29:47;14.73;;;11.00;;
10088;SDS011;51898;49.864;8.550;2024-01-30T17:32:49;15.70;;;10.63;;
10088;SDS011;51898;49.864;8.550;2024-01-30T17:35:51;17.40;;;11.70;;
10088;SDS011;51898;49.864;8.550;2024-01-30T17:38:53;15.33;;;10.83;;
10088;SDS011;51898;49.864;8.550;2024-01-30T17:41:55;15.90;;;10.77;;
10088;SDS011;51898;49.864;8.550;2024-01-30T17:44:57;12.03;;;9.80;;
10088;SDS011;51898;49.864;8.550;2024-01-30T17:48:00;12.20;;;9.43;;